Watkins, MN

10:05 AM CST on November 23, 2014 (GMT -0600)
Saint Cloud Regional | Change Station
CLOSE
Current Station
Airport
Location: St. Cloud,
Elevation: 1024 ft
Nearby Weather Stations
Active Advisory: Special Statement

Elev 1024 ft 45.55 °N, 94.06 °W | Updated 12 minutes ago

Rain
Rain
38 °F
Feels Like 38 °F
N
0
Wind Variable Wind from North

Today
High -- | Low -- °F
--% Chance of Precip.
Yesterday
High -- | Low -- °F
Precip. -- in
7:27 AM 4:40 PM
New Moon, 2% visible
Pressure 29.51 in
Visibility 2.5 miles
Clouds Scattered Clouds 7000 ft
Overcast 8500 ft
Dew Point 35 °F
Humidity 89%
Rainfall 0.00 in
Snow Depth Not available.
UV 0 out of 12
Pollen .10 out of 12
Air Quality Not available.
Flu Activity Not available.
METAR KSTC 231553Z 00000KT 2 1/2SM UP BR SCT070 OVC085 03/02 A2946 RMK AO2 UPB51 SLP992 P0000 T00330017

More Conditions Fewer Conditions

Pressure 29.51 in
Visibility 2.5 miles
Clouds Scattered Clouds 7000 ft
Overcast 8500 ft
Dew Point 35 °F
Humidity 89%
Rainfall 0.00 in
Snow Depth Not available.
UV 0 out of 12
Pollen .10 out of 12
Air Quality Not available.
Flu Activity Not available.
METAR KSTC 231553Z 00000KT 2 1/2SM UP BR SCT070 OVC085 03/02 A2946 RMK AO2 UPB51 SLP992 P0000 T00330017

More Conditions Fewer Conditions

10-Day Weather Forecast

Almanac

Astronomy

Nov. 23, 2014 Rise Set
Actual Time
Civil Twilight
Nautical Twilight
Astronomical Twilight
Moon
Length of Visible Light
Length of Day
Tomorrow will be .
, % of the Moon is Illuminated

Today's Extremes

State Highs State Lows

Community

WunderPhotos

Upload Photos

1,773,087 photos uploaded!

WunderBlogs® & News

Nearby

Air Quality

  Air Quality AQ Index Pollutant
Not available.

Snow Depth

Station Depth Elevation

Earthquake Activity

City Distance Mag. Time & Date
Minimum magnitude displayed is 2.5.

Coastal Water Temperatures

Place Temperature

Nearby Weather Stations